Stacy, North Carolina
Current Conditions -  °F | °C
As of 5:56 PM on Friday 28 Nov 2014 (Local Time) from KNBT Reporting Station
Clear Clear  
Wind Chill: 38°   Ceiling: Unl
Heat Index: 42°   Visibility: NA
Dew Point: 25°   Wind: 7mph
Humidity: 51%   Direction: 320°NW
Pressure: 30.3"   Gusts: NA
Location:  34.85°N, 76.42°W
Report Text: KNBT 282256Z AUTO 32006KT CLR 06/M04 A3030 RMK AO2 SLP266 T00561039 PNO $
Loading
Personal Weather Stations






























Interactive Weather Map New forecast layout! Learn more

10-Day Weather Forecast

Advertisements
Track Severe Weather on mobile